Time;durP1;ratioP1;P1;durP2;ratioP2;P2;SDS_P1;SDS_P2;PMS_P1;PMS_P2;Temp;Humidity;BMP_temperature;BMP_pressure;BME280_temperature;BME280_humidity;BME280_pressure;Samples;Min_cycle;Max_cycle;Signal;HPM_P1;HPM_P2
2023/04/12 00:01:51;;;;;;;3.70;1.97;;;6.60;99.90;;;;;;5054644;28;20495;-61
2023/04/12 00:04:17;;;;;;;7.10;1.83;;;6.60;99.90;;;;;;5055851;28;20438;-67
2023/04/12 00:06:47;;;;;;;4.50;1.30;;;6.60;99.90;;;;;;5055869;28;20444;-60
2023/04/12 00:09:14;;;;;;;3.70;2.27;;;6.50;99.90;;;;;;5055832;28;20464;-60
2023/04/12 00:11:41;;;;;;;7.53;2.13;;;6.50;99.90;;;;;;5055500;28;20452;-60
2023/04/12 00:14:08;;;;;;;5.63;1.97;;;6.50;99.90;;;;;;5054210;28;20472;-61
2023/04/12 00:16:37;;;;;;;4.53;1.97;;;6.50;99.90;;;;;;5055258;28;20455;-62
2023/04/12 00:19:05;;;;;;;2.63;2.00;;;6.50;99.90;;;;;;5054887;28;20531;-61
2023/04/12 00:21:32;;;;;;;5.43;2.07;;;6.50;99.90;;;;;;5055117;28;20474;-60
2023/04/12 00:24:00;;;;;;;2.43;1.50;;;6.40;99.90;;;;;;5054426;28;20443;-58
2023/04/12 00:26:26;;;;;;;2.80;1.43;;;6.40;99.90;;;;;;5054604;28;20444;-60
2023/04/12 00:28:55;;;;;;;2.10;1.70;;;6.30;99.90;;;;;;5054950;28;20441;-61
2023/04/12 00:31:21;;;;;;;1.83;1.47;;;6.30;99.90;;;;;;5054549;28;20456;-61
2023/04/12 00:33:48;;;;;;;4.97;1.90;;;6.30;99.90;;;;;;5054936;28;20486;-61
2023/04/12 00:36:17;;;;;;;3.50;2.40;;;6.30;99.90;;;;;;5054538;28;20448;-60
2023/04/12 00:38:44;;;;;;;6.20;2.00;;;6.20;99.90;;;;;;5054582;28;20472;-60
2023/04/12 00:41:12;;;;;;;4.17;1.60;;;6.20;99.90;;;;;;5054640;28;20463;-58
2023/04/12 00:43:40;;;;;;;2.30;1.40;;;6.10;99.90;;;;;;5054854;28;20590;-61
2023/04/12 00:46:08;;;;;;;2.10;1.30;;;6.10;99.90;;;;;;5053910;28;20513;-61
2023/04/12 00:48:36;;;;;;;1.97;1.50;;;6.10;99.90;;;;;;5054548;28;20464;-60
2023/04/12 00:51:04;;;;;;;3.40;2.13;;;6.10;99.90;;;;;;5054498;28;20444;-61
2023/04/12 00:53:33;;;;;;;2.20;1.60;;;6.10;99.90;;;;;;5054415;28;20471;-62
2023/04/12 00:56:02;;;;;;;3.37;2.00;;;6.10;99.90;;;;;;5054657;28;20475;-59
2023/04/12 00:58:30;;;;;;;2.20;1.90;;;6.10;99.90;;;;;;5055573;28;20458;-61
2023/04/12 01:00:57;;;;;;;3.77;2.27;;;6.10;99.90;;;;;;5058241;28;20468;-56
2023/04/12 01:03:26;;;;;;;2.80;1.83;;;6.10;99.90;;;;;;5058290;28;20487;-61
2023/04/12 01:06:06;;;;;;;4.03;1.50;;;6.10;99.90;;;;;;5058471;28;20468;-62
2023/04/12 01:08:51;;;;;;;5.80;2.07;;;6.10;99.90;;;;;;5058878;28;20483;-60
2023/04/12 01:11:25;;;;;;;1.70;1.53;;;6.10;99.90;;;;;;5058519;28;20424;-60
2023/04/12 01:14:03;;;;;;;2.23;1.90;;;6.10;99.90;;;;;;5058425;28;20487;-59
2023/04/12 01:16:40;;;;;;;2.23;1.80;;;6.20;99.90;;;;;;5058218;28;20428;-61
2023/04/12 01:19:28;;;;;;;3.97;1.47;;;6.20;99.90;;;;;;5058452;28;20471;-61
2023/04/12 01:22:12;;;;;;;3.40;2.40;;;6.10;99.90;;;;;;5058154;28;20475;-60
2023/04/12 01:24:51;;;;;;;2.97;2.53;;;6.20;99.90;;;;;;5057758;28;20454;-61
2023/04/12 01:27:34;;;;;;;7.87;2.23;;;6.10;99.90;;;;;;5057836;28;20463;-59
2023/04/12 01:30:03;;;;;;;3.50;2.03;;;6.10;99.90;;;;;;5058034;28;20471;-59
2023/04/12 01:32:31;;;;;;;3.50;2.30;;;6.10;99.90;;;;;;5057877;28;20440;-60
2023/04/12 01:35:02;;;;;;;1.67;1.53;;;6.00;99.90;;;;;;5057560;28;20484;-59
2023/04/12 01:37:31;;;;;;;3.40;1.83;;;6.00;99.90;;;;;;5057696;28;20447;-61
2023/04/12 01:40:00;;;;;;;5.10;2.30;;;5.90;99.90;;;;;;5057866;28;20474;-59
2023/04/12 01:42:28;;;;;;;4.00;2.40;;;5.90;99.90;;;;;;5057460;28;20439;-61
2023/04/12 01:44:55;;;;;;;2.77;1.60;;;5.80;99.90;;;;;;5057460;28;20504;-59
2023/04/12 01:47:22;;;;;;;3.07;2.23;;;5.90;99.90;;;;;;5057628;28;20447;-61
2023/04/12 01:49:59;;;;;;;3.87;1.80;;;5.80;99.90;;;;;;5057690;28;20447;-61
2023/04/12 01:52:35;;;;;;;6.03;3.00;;;5.80;99.90;;;;;;5057890;28;20435;-61
2023/04/12 01:55:10;;;;;;;3.70;2.50;;;5.80;99.90;;;;;;5057291;28;20493;-59
2023/04/12 01:57:42;;;;;;;25.53;12.47;;;5.80;99.90;;;;;;5056577;28;20439;-61
2023/04/12 02:00:11;;;;;;;15.10;5.93;;;5.70;99.90;;;;;;5057592;28;20448;-61
2023/04/12 02:02:38;;;;;;;6.40;2.83;;;5.70;99.90;;;;;;5056798;28;20444;-61
2023/04/12 02:05:09;;;;;;;4.60;2.20;;;5.70;99.90;;;;;;5056954;28;20479;-57
2023/04/12 02:07:38;;;;;;;2.90;2.23;;;5.70;99.90;;;;;;5057184;28;20450;-60
2023/04/12 02:10:05;;;;;;;3.13;2.57;;;5.60;99.90;;;;;;5055580;28;20836;-58
2023/04/12 02:12:32;;;;;;;3.17;2.50;;;5.70;99.90;;;;;;5057800;28;20424;-60
2023/04/12 02:15:01;;;;;;;9.33;2.60;;;5.70;99.90;;;;;;5056667;28;20494;-61
2023/04/12 02:17:29;;;;;;;4.30;2.37;;;5.70;99.90;;;;;;5057361;28;20449;-60
2023/04/12 02:19:58;;;;;;;5.40;2.27;;;5.70;99.90;;;;;;5057359;28;20536;-60
2023/04/12 02:22:28;;;;;;;5.97;2.37;;;5.70;99.90;;;;;;5057296;28;20486;-61
2023/04/12 02:24:56;;;;;;;4.10;2.60;;;5.60;99.90;;;;;;5057321;28;20471;-61
2023/04/12 02:27:23;;;;;;;7.00;2.30;;;5.60;99.90;;;;;;5057710;28;20445;-60
2023/04/12 02:29:50;;;;;;;4.13;2.30;;;5.60;99.90;;;;;;5057751;28;20491;-61
2023/04/12 02:32:20;;;;;;;7.13;3.13;;;5.60;99.90;;;;;;5057257;28;20452;-61
2023/04/12 02:34:50;;;;;;;3.87;2.23;;;5.60;99.90;;;;;;5058099;28;20463;-61
2023/04/12 02:37:20;;;;;;;6.90;3.10;;;5.60;99.90;;;;;;5057981;28;20467;-57
2023/04/12 02:39:48;;;;;;;6.63;4.07;;;5.60;99.90;;;;;;5058297;28;20502;-61
2023/04/12 02:42:17;;;;;;;7.47;2.40;;;5.60;99.90;;;;;;5056242;28;20452;-60
2023/04/12 02:44:50;;;;;;;8.33;4.00;;;5.50;99.90;;;;;;5055744;28;20665;-61
2023/04/12 02:47:18;;;;;;;3.50;2.40;;;5.50;99.90;;;;;;5055985;28;20428;-61
2023/04/12 02:49:45;;;;;;;2.90;2.10;;;5.50;99.90;;;;;;5055909;28;20495;-61
2023/04/12 02:52:12;;;;;;;3.73;2.30;;;5.50;99.90;;;;;;5056478;28;20439;-61
2023/04/12 02:54:39;;;;;;;3.20;2.27;;;5.50;99.90;;;;;;5056153;28;20567;-61
2023/04/12 02:57:07;;;;;;;6.47;2.23;;;5.50;99.90;;;;;;5055725;28;20445;-60
2023/04/12 02:59:36;;;;;;;6.63;2.87;;;5.40;99.90;;;;;;5056126;28;20964;-60
2023/04/12 03:02:03;;;;;;;7.77;2.10;;;5.40;99.90;;;;;;5056120;28;20444;-60
2023/04/12 03:04:38;;;;;;;4.37;2.53;;;5.30;99.90;;;;;;5055716;28;20487;-62
2023/04/12 03:07:05;;;;;;;3.70;2.37;;;5.40;99.90;;;;;;5056433;28;20436;-60
2023/04/12 03:09:33;;;;;;;4.63;3.90;;;5.40;99.90;;;;;;5056561;28;20560;-60
2023/04/12 03:12:01;;;;;;;10.80;3.00;;;5.30;99.90;;;;;;5056836;28;20455;-59
2023/04/12 03:14:31;;;;;;;2.10;1.67;;;5.40;99.90;;;;;;5056847;28;20472;-60
2023/04/12 03:17:01;;;;;;;6.63;2.87;;;5.40;99.90;;;;;;5055566;28;20467;-60
2023/04/12 03:19:31;;;;;;;3.33;2.33;;;5.40;99.90;;;;;;5055287;28;20448;-60
2023/04/12 03:22:00;;;;;;;3.30;2.13;;;5.40;99.90;;;;;;5055916;28;20448;-62
2023/04/12 03:24:27;;;;;;;2.50;2.30;;;5.30;99.90;;;;;;5057287;28;20471;-60
2023/04/12 03:27:03;;;;;;;3.60;2.57;;;5.30;99.90;;;;;;5056388;28;20455;-60
2023/04/12 03:29:30;;;;;;;6.10;2.27;;;5.30;99.90;;;;;;5056574;28;20454;-60
2023/04/12 03:32:02;;;;;;;9.63;1.90;;;5.20;99.90;;;;;;5057023;28;20412;-59
2023/04/12 03:34:31;;;;;;;5.00;1.80;;;5.20;99.90;;;;;;5054894;28;20506;-60
2023/04/12 03:37:00;;;;;;;4.30;2.20;;;5.20;99.90;;;;;;5055493;28;20425;-58
2023/04/12 03:39:27;;;;;;;3.30;2.50;;;5.10;99.90;;;;;;5055136;28;20464;-61
2023/04/12 03:41:55;;;;;;;2.70;2.10;;;5.10;99.90;;;;;;5055645;28;20436;-61
2023/04/12 03:44:24;;;;;;;2.40;1.90;;;5.00;99.90;;;;;;5054593;28;20471;-59
2023/04/12 03:46:51;;;;;;;1.90;1.70;;;5.00;99.90;;;;;;5054902;28;20451;-59
2023/04/12 03:49:18;;;;;;;3.80;2.33;;;5.10;99.90;;;;;;5055362;28;20428;-60
2023/04/12 03:51:49;;;;;;;7.23;2.53;;;5.00;99.90;;;;;;5054981;28;20450;-60
2023/04/12 03:54:17;;;;;;;4.40;2.90;;;5.10;99.90;;;;;;5055311;28;20425;-60
2023/04/12 03:56:44;;;;;;;4.30;2.33;;;5.10;99.90;;;;;;5055384;28;20471;-60
2023/04/12 03:59:13;;;;;;;5.13;3.03;;;5.10;99.90;;;;;;5055314;28;20448;-62
2023/04/12 04:01:40;;;;;;;3.77;2.50;;;5.10;99.90;;;;;;5055357;28;20536;-61
2023/04/12 04:04:07;;;;;;;3.73;2.67;;;5.10;99.90;;;;;;5055138;28;20471;-60
2023/04/12 04:06:34;;;;;;;3.77;2.60;;;5.20;99.90;;;;;;5055679;28;20460;-60
2023/04/12 04:09:07;;;;;;;4.77;3.10;;;5.20;99.90;;;;;;5055033;28;20444;-62
2023/04/12 04:11:36;;;;;;;7.50;2.77;;;5.20;99.90;;;;;;5054971;28;20463;-62
2023/04/12 04:14:03;;;;;;;5.60;3.00;;;5.10;99.90;;;;;;5055361;28;20500;-61
2023/04/12 04:16:30;;;;;;;5.73;3.20;;;5.10;99.90;;;;;;5054996;28;20498;-59
2023/04/12 04:18:57;;;;;;;7.43;3.43;;;5.10;99.90;;;;;;5054782;28;20896;-61
2023/04/12 04:21:25;;;;;;;6.00;3.10;;;5.00;99.90;;;;;;5055904;28;20471;-58
2023/04/12 04:23:53;;;;;;;6.13;3.30;;;5.00;99.90;;;;;;5055878;28;20455;-62
2023/04/12 04:26:32;;;;;;;4.80;2.90;;;5.00;99.90;;;;;;5055456;28;20456;-58
2023/04/12 04:29:07;;;;;;;3.50;3.20;;;5.10;99.90;;;;;;5055324;28;20420;-56
2023/04/12 04:31:36;;;;;;;6.10;3.57;;;5.10;99.90;;;;;;5055071;28;20483;-61
2023/04/12 04:34:04;;;;;;;9.07;2.90;;;5.10;99.90;;;;;;5056991;28;20444;-61
2023/04/12 04:36:43;;;;;;;4.53;2.70;;;5.10;99.90;;;;;;5059139;28;20520;-61
2023/04/12 04:39:10;;;;;;;5.93;3.70;;;5.10;99.90;;;;;;5058878;28;20415;-61
2023/04/12 04:41:38;;;;;;;7.27;4.07;;;5.20;99.90;;;;;;5058282;28;20471;-62
2023/04/12 04:44:09;;;;;;;10.10;3.10;;;5.20;99.90;;;;;;5058960;28;20542;-58
2023/04/12 04:46:36;;;;;;;5.77;3.10;;;5.20;99.90;;;;;;5058492;28;20467;-60
2023/04/12 04:49:04;;;;;;;5.80;2.93;;;5.20;99.90;;;;;;5058109;28;20438;-60
2023/04/12 04:51:31;;;;;;;5.40;3.40;;;5.20;99.90;;;;;;5058425;28;20468;-62
2023/04/12 04:53:59;;;;;;;5.00;2.90;;;5.20;99.90;;;;;;5059192;28;20439;-61
2023/04/12 04:56:27;;;;;;;3.73;3.13;;;5.20;99.90;;;;;;5058814;28;20479;-61
2023/04/12 04:58:55;;;;;;;5.70;2.77;;;5.20;99.90;;;;;;5058460;28;20443;-61
2023/04/12 05:01:24;;;;;;;8.10;3.37;;;5.20;99.90;;;;;;5059152;28;20451;-61
2023/04/12 05:03:51;;;;;;;2.90;2.53;;;5.20;99.90;;;;;;5058007;28;20456;-61
2023/04/12 05:06:18;;;;;;;5.13;3.20;;;5.20;99.90;;;;;;5058505;28;20444;-57
2023/04/12 05:08:48;;;;;;;3.37;2.60;;;5.20;99.90;;;;;;5058748;28;20439;-59
2023/04/12 05:11:15;;;;;;;3.90;2.80;;;5.20;99.90;;;;;;5057513;28;20467;-61
2023/04/12 05:13:42;;;;;;;3.03;2.30;;;5.20;99.90;;;;;;5058759;28;20444;-60
2023/04/12 05:16:10;;;;;;;3.10;2.50;;;5.20;99.90;;;;;;5058142;28;20495;-60
2023/04/12 05:18:39;;;;;;;8.03;2.10;;;5.20;99.90;;;;;;5058927;28;20428;-61
2023/04/12 05:21:07;;;;;;;9.17;2.30;;;5.20;99.90;;;;;;5058452;28;20447;-59
2023/04/12 05:23:35;;;;;;;4.43;3.30;;;5.20;99.90;;;;;;5058635;28;20436;-60
2023/04/12 05:26:02;;;;;;;7.70;3.40;;;5.20;99.90;;;;;;5058525;28;20515;-61
2023/04/12 05:28:29;;;;;;;8.90;3.77;;;5.20;99.90;;;;;;5058105;28;20455;-61
2023/04/12 05:30:56;;;;;;;12.03;3.67;;;5.30;99.90;;;;;;5058446;28;20444;-57
2023/04/12 05:33:26;;;;;;;5.50;3.57;;;5.30;99.90;;;;;;5058802;28;20428;-55
2023/04/12 05:35:54;;;;;;;14.37;3.20;;;5.30;99.90;;;;;;5059280;28;20472;-60
2023/04/12 05:38:21;;;;;;;5.90;4.60;;;5.40;99.90;;;;;;5058913;28;20495;-61
2023/04/12 05:40:49;;;;;;;5.50;4.20;;;5.50;99.90;;;;;;5059006;28;20424;-60
2023/04/12 05:43:17;;;;;;;5.17;3.40;;;5.50;99.90;;;;;;5058847;28;20424;-61
2023/04/12 05:45:44;;;;;;;7.10;2.87;;;5.60;99.90;;;;;;5059690;28;20440;-61
2023/04/12 05:48:10;;;;;;;4.17;3.10;;;5.70;99.90;;;;;;5058837;28;20464;-60
2023/04/12 05:50:37;;;;;;;3.37;3.03;;;5.80;99.90;;;;;;5056825;28;20436;-61
2023/04/12 05:53:06;;;;;;;8.23;3.33;;;5.80;99.90;;;;;;5057745;28;20456;-60
2023/04/12 05:55:33;;;;;;;4.70;3.10;;;5.80;99.90;;;;;;5057467;28;20948;-60
2023/04/12 05:58:00;;;;;;;3.07;2.67;;;5.90;99.90;;;;;;5056831;28;20476;-58
2023/04/12 06:00:27;;;;;;;10.30;4.60;;;6.00;99.90;;;;;;5057289;28;20440;-61
2023/04/12 06:02:53;;;;;;;5.10;3.70;;;6.10;99.90;;;;;;5056663;28;20503;-61
2023/04/12 06:05:21;;;;;;;5.60;2.80;;;6.20;99.90;;;;;;5057397;28;20440;-61
2023/04/12 06:07:48;;;;;;;5.00;3.30;;;6.20;99.90;;;;;;5056711;28;20483;-59
2023/04/12 06:10:17;;;;;;;3.83;3.10;;;6.30;99.90;;;;;;5057174;28;20452;-61
2023/04/12 06:12:46;;;;;;;7.47;4.90;;;6.40;99.90;;;;;;5056484;28;20475;-61
2023/04/12 06:15:13;;;;;;;7.40;3.20;;;6.50;99.90;;;;;;5056538;28;20476;-61
2023/04/12 06:17:40;;;;;;;6.90;3.80;;;6.60;99.90;;;;;;5056731;28;20504;-57
2023/04/12 06:20:08;;;;;;;7.47;3.87;;;6.60;99.90;;;;;;5056722;28;20459;-61
2023/04/12 06:22:38;;;;;;;8.33;3.27;;;6.70;99.90;;;;;;5056623;28;20524;-60
2023/04/12 06:25:06;;;;;;;5.83;3.17;;;6.80;99.90;;;;;;5056429;28;20980;-59
2023/04/12 06:27:35;;;;;;;7.83;3.40;;;6.80;99.90;;;;;;5056223;28;20529;-60
2023/04/12 06:30:02;;;;;;;7.43;2.97;;;6.90;99.90;;;;;;5056523;28;20486;-60
2023/04/12 06:32:28;;;;;;;8.40;5.40;;;7.00;99.90;;;;;;5056765;28;20467;-60
2023/04/12 06:34:55;;;;;;;11.53;4.07;;;7.00;99.90;;;;;;5056431;28;20432;-62
2023/04/12 06:37:22;;;;;;;9.80;3.27;;;7.20;99.90;;;;;;5056189;28;20507;-61
2023/04/12 06:39:50;;;;;;;10.37;3.37;;;7.20;99.90;;;;;;5056449;28;20455;-61
2023/04/12 06:42:17;;;;;;;11.90;3.67;;;7.20;99.90;;;;;;5055807;28;20459;-60
2023/04/12 06:44:46;;;;;;;5.07;3.23;;;7.30;99.90;;;;;;5056381;28;20432;-61
2023/04/12 06:47:15;;;;;;;6.63;3.97;;;7.40;99.90;;;;;;5055773;28;20451;-58
2023/04/12 06:49:42;;;;;;;13.13;3.53;;;7.50;99.90;;;;;;5055775;28;20424;-59
2023/04/12 06:52:09;;;;;;;5.33;3.10;;;7.50;99.90;;;;;;5055838;28;20424;-62
2023/04/12 06:54:37;;;;;;;6.83;3.07;;;7.60;99.90;;;;;;5055675;28;20451;-58
2023/04/12 06:57:08;;;;;;;7.23;3.10;;;7.70;99.90;;;;;;5055100;28;20484;-61
2023/04/12 06:59:35;;;;;;;5.60;3.10;;;7.80;99.90;;;;;;5056026;28;20425;-59
2023/04/12 07:02:03;;;;;;;8.43;3.43;;;7.90;99.90;;;;;;5055548;28;20448;-62
2023/04/12 07:04:30;;;;;;;3.83;3.10;;;8.00;99.90;;;;;;5055582;28;20455;-62
2023/04/12 07:06:57;;;;;;;18.60;4.13;;;8.10;99.90;;;;;;5055640;28;20440;-60
2023/04/12 07:09:23;;;;;;;6.20;3.47;;;8.20;99.90;;;;;;5056095;28;20503;-60
2023/04/12 07:11:50;;;;;;;11.60;3.07;;;8.30;99.90;;;;;;5042765;28;20428;-61
2023/04/12 07:14:17;;;;;;;4.53;2.97;;;8.40;99.90;;;;;;5055276;28;20452;-61
2023/04/12 07:16:44;;;;;;;10.90;3.77;;;8.50;99.90;;;;;;5055402;28;20582;-61
2023/04/12 07:19:12;;;;;;;13.33;4.00;;;8.60;99.90;;;;;;5055279;28;20472;-61
2023/04/12 07:21:40;;;;;;;5.50;4.10;;;8.70;99.90;;;;;;5055295;28;20448;-61
2023/04/12 07:24:07;;;;;;;5.63;3.63;;;8.90;99.90;;;;;;5054823;28;20471;-61
2023/04/12 07:26:34;;;;;;;5.57;3.13;;;9.00;99.90;;;;;;5055500;28;20451;-61
2023/04/12 07:29:01;;;;;;;5.07;3.00;;;9.00;99.90;;;;;;5054774;28;20468;-61
2023/04/12 07:31:30;;;;;;;12.90;3.33;;;9.20;99.90;;;;;;5055122;28;20470;-60
2023/04/12 07:33:57;;;;;;;5.70;3.07;;;9.30;99.90;;;;;;5054547;28;20488;-61
2023/04/12 07:36:26;;;;;;;10.70;5.00;;;9.30;99.90;;;;;;5055050;28;20510;-60
2023/04/12 07:38:54;;;;;;;5.33;2.30;;;9.50;99.90;;;;;;5054523;28;20499;-60
2023/04/12 07:41:22;;;;;;;7.90;2.90;;;9.60;99.90;;;;;;5054596;28;20443;-62
2023/04/12 07:43:49;;;;;;;5.53;2.80;;;9.70;99.90;;;;;;5054340;28;20473;-62
2023/04/12 07:46:18;;;;;;;3.47;1.90;;;9.80;99.90;;;;;;5055112;28;20464;-61
2023/04/12 07:48:45;;;;;;;7.50;2.27;;;9.80;99.90;;;;;;5055157;28;20500;-61
2023/04/12 07:51:14;;;;;;;2.87;2.10;;;9.90;99.90;;;;;;5054175;28;20479;-60
2023/04/12 07:53:47;;;;;;;2.83;1.90;;;10.10;99.90;;;;;;5054365;28;20465;-60
2023/04/12 07:56:13;;;;;;;2.10;1.47;;;10.10;99.90;;;;;;5054478;28;20487;-61
2023/04/12 07:58:40;;;;;;;2.63;1.30;;;10.30;99.90;;;;;;5054371;28;20484;-62
2023/04/12 08:01:07;;;;;;;3.07;1.67;;;10.50;99.90;;;;;;5054178;28;20459;-60
2023/04/12 08:03:34;;;;;;;2.77;1.73;;;10.70;99.90;;;;;;5054016;28;20459;-60
2023/04/12 08:06:01;;;;;;;2.83;1.60;;;11.20;99.90;;;;;;5054157;28;20431;-62
2023/04/12 08:08:28;;;;;;;2.80;1.77;;;12.60;99.90;;;;;;5053672;28;20494;-60
2023/04/12 08:10:56;;;;;;;10.90;1.73;;;14.80;99.90;;;;;;5055196;28;20460;-62
2023/04/12 08:13:23;;;;;;;2.60;1.50;;;17.30;99.90;;;;;;5054804;28;20447;-61
2023/04/12 08:15:50;;;;;;;2.90;1.50;;;19.40;92.70;;;;;;5054254;28;20472;-61
2023/04/12 08:18:17;;;;;;;2.70;1.70;;;21.10;80.50;;;;;;5055281;28;20444;-63
2023/04/12 08:20:44;;;;;;;7.50;2.20;;;22.80;66.00;;;;;;5054201;28;20784;-63
2023/04/12 08:23:11;;;;;;;4.53;2.17;;;24.00;57.60;;;;;;5053664;28;20440;-64
2023/04/12 08:25:40;;;;;;;2.90;1.30;;;24.70;52.90;;;;;;5052842;28;20447;-61
2023/04/12 08:28:09;;;;;;;4.43;1.60;;;25.10;50.00;;;;;;5053123;28;20437;-64
2023/04/12 08:30:36;;;;;;;4.53;1.90;;;25.90;46.90;;;;;;5055338;28;20913;-60
2023/04/12 08:33:03;;;;;;;3.30;1.87;;;26.20;45.60;;;;;;5055160;28;20448;-59
2023/04/12 08:35:29;;;;;;;5.30;1.70;;;26.40;43.70;;;;;;5052251;28;20455;-63
2023/04/12 08:37:56;;;;;;;2.10;1.57;;;26.80;43.60;;;;;;5051550;28;20483;-62
2023/04/12 08:40:24;;;;;;;2.87;1.80;;;27.00;42.70;;;;;;5052779;28;20464;-61
2023/04/12 08:42:53;;;;;;;4.70;1.40;;;27.10;42.80;;;;;;5055220;28;20449;-62
2023/04/12 08:45:29;;;;;;;5.40;2.67;;;27.20;40.70;;;;;;5054571;28;20468;-61
2023/04/12 08:47:55;;;;;;;2.73;1.50;;;26.90;40.00;;;;;;5052754;28;20427;-62
2023/04/12 08:50:23;;;;;;;4.77;1.73;;;26.90;40.20;;;;;;5051583;28;20510;-62
2023/04/12 08:52:51;;;;;;;2.73;2.00;;;26.90;39.90;;;;;;5050469;28;20447;-61
2023/04/12 08:55:18;;;;;;;3.67;2.33;;;26.70;37.10;;;;;;5054551;28;20471;-60
2023/04/12 08:57:46;;;;;;;3.80;2.00;;;26.30;38.30;;;;;;5054420;28;20483;-62
2023/04/12 09:00:15;;;;;;;2.23;1.40;;;26.20;38.10;;;;;;5052974;28;20463;-61
2023/04/12 09:02:45;;;;;;;2.60;1.93;;;26.10;38.30;;;;;;5050636;28;20480;-62
2023/04/12 09:05:13;;;;;;;4.40;2.67;;;26.00;38.90;;;;;;5053834;28;20472;-60
2023/04/12 09:07:40;;;;;;;6.83;2.90;;;26.30;37.30;;;;;;5053990;28;20778;-62
2023/04/12 09:10:07;;;;;;;2.97;1.97;;;26.20;37.30;;;;;;5054304;28;20460;-59
2023/04/12 09:12:34;;;;;;;4.20;2.03;;;25.60;37.30;;;;;;5047357;28;20440;-62
2023/04/12 09:15:08;;;;;;;5.20;2.27;;;25.60;37.50;;;;;;5053997;28;20499;-61
2023/04/12 09:17:37;;;;;;;4.40;1.90;;;25.80;38.60;;;;;;5051524;28;20464;-62
2023/04/12 09:20:24;;;;;;;4.70;2.00;;;25.80;37.90;;;;;;5056649;28;20823;-62
2023/04/12 09:22:54;;;;;;;5.47;1.73;;;25.90;36.80;;;;;;5058059;28;20497;-61
2023/04/12 09:25:40;;;;;;;3.03;1.60;;;25.60;36.70;;;;;;5055856;28;20494;-62
2023/04/12 09:28:22;;;;;;;2.43;1.57;;;24.80;37.80;;;;;;5057509;28;20963;-62
2023/04/12 09:30:51;;;;;;;6.00;2.10;;;24.70;37.60;;;;;;5058106;28;20474;-62
2023/04/12 09:33:22;;;;;;;4.20;2.00;;;24.60;38.50;;;;;;5057944;28;20454;-60
2023/04/12 09:35:50;;;;;;;4.80;1.73;;;24.50;37.80;;;;;;5057385;28;20464;-63
2023/04/12 09:38:17;;;;;;;3.00;1.67;;;24.60;38.20;;;;;;5052799;28;20487;-61
2023/04/12 09:40:44;;;;;;;2.93;1.67;;;24.90;38.40;;;;;;5054135;28;20953;-63
2023/04/12 09:43:11;;;;;;;8.03;2.17;;;24.90;38.60;;;;;;5057770;28;20444;-61
2023/04/12 09:45:41;;;;;;;2.30;2.10;;;25.40;38.80;;;;;;5057370;28;20467;-62
2023/04/12 09:48:17;;;;;;;2.60;1.67;;;25.60;37.80;;;;;;5057650;28;20467;-60
2023/04/12 09:50:46;;;;;;;2.77;2.57;;;25.70;37.10;;;;;;5056483;28;20464;-62
2023/04/12 09:53:17;;;;;;;5.97;1.90;;;25.20;35.90;;;;;;5055236;28;20466;-62
2023/04/12 09:55:44;;;;;;;3.57;2.37;;;25.10;37.10;;;;;;5057173;28;20535;-62
2023/04/12 09:58:12;;;;;;;6.70;2.90;;;25.00;36.80;;;;;;5055170;28;20483;-61
2023/04/12 10:00:41;;;;;;;2.97;2.20;;;24.70;36.90;;;;;;5056228;28;20459;-62
2023/04/12 10:03:08;;;;;;;10.60;2.40;;;24.70;36.50;;;;;;5056304;28;20467;-63
2023/04/12 10:05:39;;;;;;;3.70;2.20;;;24.80;36.30;;;;;;5055365;28;20468;-62
2023/04/12 10:08:06;;;;;;;6.60;1.77;;;25.20;36.60;;;;;;5055612;28;20459;-62
2023/04/12 10:10:34;;;;;;;2.17;2.00;;;25.10;36.20;;;;;;5056558;28;20464;-63
2023/04/12 10:13:01;;;;;;;2.40;1.63;;;25.10;35.90;;;;;;5055693;28;20428;-61
2023/04/12 10:15:30;;;;;;;2.87;1.70;;;24.70;36.00;;;;;;5055093;28;20440;-61
2023/04/12 10:17:57;;;;;;;2.77;1.60;;;24.80;36.20;;;;;;5055226;28;20464;-61
2023/04/12 10:20:24;;;;;;;3.77;1.70;;;25.00;36.50;;;;;;5056749;28;20431;-61
2023/04/12 10:22:52;;;;;;;3.80;1.73;;;25.20;35.90;;;;;;5057222;28;20424;-59
2023/04/12 10:25:21;;;;;;;3.13;1.70;;;25.10;35.80;;;;;;5055107;28;20425;-59
2023/04/12 10:27:50;;;;;;;6.00;2.00;;;25.00;37.30;;;;;;5055393;28;20459;-61
2023/04/12 10:30:22;;;;;;;3.70;1.70;;;25.00;37.20;;;;;;5054164;28;20433;-61
2023/04/12 10:32:49;;;;;;;2.23;1.57;;;25.30;36.10;;;;;;5053996;28;20455;-62
2023/04/12 10:35:16;;;;;;;3.00;1.70;;;25.30;35.70;;;;;;5057027;28;20427;-62
2023/04/12 10:38:00;;;;;;;4.57;1.90;;;24.90;36.00;;;;;;5054848;28;20476;-61
2023/04/12 10:40:27;;;;;;;1.97;1.53;;;24.50;36.20;;;;;;5054038;28;20444;-62
2023/04/12 10:43:26;;;;;;;3.50;2.10;;;24.10;36.30;;;;;;5055318;28;20999;-62
2023/04/12 10:45:53;;;;;;;2.57;2.10;;;23.90;36.50;;;;;;5056427;28;20444;-61
2023/04/12 10:48:38;;;;;;;4.43;1.70;;;23.60;36.80;;;;;;5056100;28;20424;-64
2023/04/12 10:51:24;;;;;;;8.23;2.80;;;23.10;37.10;;;;;;5052861;28;20464;-62
2023/04/12 10:53:51;;;;;;;3.70;1.77;;;22.50;37.80;;;;;;5053562;28;20439;-62
2023/04/12 10:56:38;;;;;;;4.53;2.10;;;22.30;38.50;;;;;;5054680;28;20472;-61
2023/04/12 10:59:07;;;;;;;6.50;1.80;;;22.00;39.60;;;;;;5056530;28;20524;-61
2023/04/12 11:01:37;;;;;;;3.90;2.20;;;21.90;39.30;;;;;;5056796;28;20459;-59
2023/04/12 11:04:15;;;;;;;4.60;1.80;;;21.60;40.20;;;;;;5055448;28;20441;-59
2023/04/12 11:06:50;;;;;;;6.70;1.73;;;21.10;39.70;;;;;;5055558;28;20527;-62
2023/04/12 11:09:21;;;;;;;2.53;1.50;;;20.70;40.50;;;;;;5055706;28;20416;-62
2023/04/12 11:11:48;;;;;;;2.73;1.50;;;20.40;40.80;;;;;;5055672;28;20478;-62
2023/04/12 11:14:17;;;;;;;4.93;1.60;;;20.00;41.10;;;;;;5055496;28;20527;-60
2023/04/12 11:17:22;;;;;;;7.50;2.00;;;19.50;41.60;;;;;;5052246;28;20492;-60
2023/04/12 11:19:54;;;;;;;2.97;1.60;;;19.10;42.00;;;;;;5055641;28;20452;-61
2023/04/12 11:22:24;;;;;;;2.13;1.43;;;18.80;42.60;;;;;;5053028;28;20464;-61
2023/04/12 11:24:52;;;;;;;4.13;1.77;;;18.50;43.90;;;;;;5055295;28;20448;-61
2023/04/12 11:27:20;;;;;;;3.63;2.07;;;18.60;43.70;;;;;;5054952;28;20505;-59
2023/04/12 11:29:51;;;;;;;3.63;1.40;;;18.60;43.80;;;;;;5055281;28;20447;-62
2023/04/12 11:32:21;;;;;;;1.93;1.30;;;18.70;44.30;;;;;;5055142;28;20468;-61
2023/04/12 11:34:47;;;;;;;4.13;1.70;;;18.80;45.30;;;;;;5055635;28;20459;-61
2023/04/12 11:37:15;;;;;;;1.43;1.30;;;18.60;43.70;;;;;;5056227;28;20549;-60
2023/04/12 11:39:43;;;;;;;2.00;1.30;;;18.30;43.80;;;;;;5055461;28;20424;-61
2023/04/12 11:42:14;;;;;;;6.03;1.80;;;18.20;43.90;;;;;;5056051;28;20452;-63
2023/04/12 11:44:42;;;;;;;4.10;2.10;;;18.00;43.80;;;;;;5055957;28;20467;-61
2023/04/12 11:47:18;;;;;;;2.73;1.83;;;17.90;44.40;;;;;;5055180;28;20452;-61
2023/04/12 11:49:47;;;;;;;4.60;1.57;;;17.80;44.40;;;;;;5055424;28;20463;-59
2023/04/12 11:52:15;;;;;;;3.87;1.77;;;17.90;45.80;;;;;;5055229;28;20460;-61
2023/04/12 11:54:44;;;;;;;4.60;1.37;;;17.90;44.40;;;;;;5054963;28;20452;-61
2023/04/12 11:57:13;;;;;;;3.53;1.63;;;17.90;44.80;;;;;;5055333;28;20516;-62
2023/04/12 11:59:40;;;;;;;3.47;1.63;;;18.00;44.20;;;;;;5054696;28;20435;-61
2023/04/12 12:02:09;;;;;;;2.23;1.57;;;18.00;44.30;;;;;;5055653;28;20460;-61
2023/04/12 12:04:38;;;;;;;4.90;1.57;;;18.00;44.00;;;;;;5054923;28;20476;-59
2023/04/12 12:07:06;;;;;;;4.47;1.70;;;17.80;44.10;;;;;;5054945;28;20436;-58
2023/04/12 12:09:33;;;;;;;3.13;1.23;;;17.60;44.40;;;;;;5054978;28;20421;-61
2023/04/12 12:12:00;;;;;;;2.03;1.70;;;17.30;44.50;;;;;;5055369;28;20440;-60
2023/04/12 12:14:28;;;;;;;2.50;1.33;;;17.30;44.70;;;;;;5055519;28;20419;-60
2023/04/12 12:16:56;;;;;;;3.13;1.87;;;17.10;45.00;;;;;;5054699;28;20452;-61
2023/04/12 12:19:28;;;;;;;2.50;1.30;;;17.10;45.00;;;;;;5055357;28;20440;-60
2023/04/12 12:22:06;;;;;;;2.53;1.30;;;17.20;45.80;;;;;;5055015;28;20512;-60
2023/04/12 12:24:33;;;;;;;3.63;1.67;;;17.20;45.20;;;;;;5055224;28;20439;-61
2023/04/12 12:27:02;;;;;;;7.10;1.60;;;17.10;45.40;;;;;;5055370;28;20440;-59
2023/04/12 12:29:36;;;;;;;4.67;2.10;;;17.10;45.50;;;;;;5054662;28;20443;-61
2023/04/12 12:32:03;;;;;;;2.20;1.50;;;17.10;45.40;;;;;;5055614;28;20446;-59
2023/04/12 12:34:33;;;;;;;2.90;1.50;;;17.20;45.80;;;;;;5055186;28;20432;-59
2023/04/12 12:37:02;;;;;;;2.93;1.70;;;17.10;45.90;;;;;;5054892;28;20429;-59
2023/04/12 12:39:29;;;;;;;3.70;1.47;;;17.10;46.40;;;;;;5055420;28;20466;-59
2023/04/12 12:41:56;;;;;;;6.10;2.07;;;17.10;46.60;;;;;;5055092;28;20531;-60
2023/04/12 12:44:23;;;;;;;2.00;1.50;;;17.10;46.20;;;;;;5054957;28;20448;-60
2023/04/12 12:46:51;;;;;;;3.37;1.53;;;17.10;46.20;;;;;;5055029;28;20456;-60
2023/04/12 12:49:18;;;;;;;3.60;1.83;;;17.10;46.40;;;;;;5055412;28;20444;-60
2023/04/12 12:51:47;;;;;;;9.07;1.80;;;17.00;46.40;;;;;;5055564;28;20447;-55
2023/04/12 12:54:17;;;;;;;5.00;1.80;;;16.90;46.30;;;;;;5057204;28;20929;-59
2023/04/12 12:56:45;;;;;;;7.70;1.97;;;16.70;46.50;;;;;;5058995;28;20433;-65
2023/04/12 12:59:12;;;;;;;10.00;1.73;;;16.70;46.60;;;;;;5059207;28;20487;-60
2023/04/12 13:01:38;;;;;;;2.40;1.30;;;16.70;46.80;;;;;;5059001;28;20444;-60
2023/04/12 13:04:05;;;;;;;2.13;1.30;;;16.60;46.70;;;;;;5059299;28;20466;-57